This is the latest recevied weather packets stored in our database for station/object K5KVN. If no packets are shown the sender has not sent any weather packets the latest 10 day(s).
| Time | Temp. | Humidity | Pressure | Rain* | Wind** | Luminosity | Snow |
|---|---|---|---|---|---|---|---|
| 1788444976 | 27.78° C | 71% | 1017.7 hPa | 0 mm | - | - | - |
| 1788444434 | 27.78° C | 73% | 1017.7 hPa | 0 mm | - | - | - |
| 1788443776 | 27.22° C | 74% | 1017.9 hPa | 0 mm | - | - | - |
| 1788443172 | 26.67° C | 76% | 1017.9 hPa | 0 mm | - | - | - |
| 1788442576 | 26.67° C | 77% | 1017.9 hPa | 0 mm | - | - | - |
| 1788441974 | 26.11° C | 79% | 1017.9 hPa | 0 mm | - | - | - |
| 1788441372 | 25° C | 82% | 1017.7 hPa | 0 mm | - | - | - |
| 1788440772 | 23.89° C | 87% | 1017.8 hPa | 0 mm | - | - | - |
| 1788440171 | 22.78° C | 91% | 1017.9 hPa | 0 mm | - | - | - |
| 1788439571 | 21.67° C | 93% | 1017.8 hPa | 0 mm | - | - | - |
| 1788438971 | 21.67° C | 93% | 1017.7 hPa | 0 mm | - | - | - |
| 1788438371 | 21.67° C | 92% | 1017.4 hPa | 0 mm | - | - | - |
| 1788437830 | 21.67° C | 92% | 1017.4 hPa | 0 mm | - | - | - |
| 1788437169 | 21.67° C | 91% | 1017.3 hPa | 0 mm | - | - | - |
| 1788436630 | 21.67° C | 91% | 1017.2 hPa | 0 mm | - | - | - |
| 1788435969 | 21.67° C | 91% | 1017.2 hPa | 0 mm | - | - | - |
| 1788435428 | 21.67° C | 90% | 1017 hPa | 0 mm | - | - | - |
| 1788434764 | 22.22° C | 90% | 1017 hPa | 0 mm | - | - | - |
| 1788434162 | 22.22° C | 89% | 1017.1 hPa | 0 mm | - | - | - |
| 1788433563 | 22.22° C | 89% | 1017 hPa | 0 mm | - | - | - |
| 1788432960 | 22.22° C | 88% | 1017 hPa | 0 mm | - | - | - |
| 1788432360 | 22.78° C | 88% | 1016.9 hPa | 0 mm | - | - | - |
| 1788431759 | 22.22° C | 88% | 1017 hPa | 0 mm | - | - | - |
| 1788431158 | 22.78° C | 88% | 1016.9 hPa | 0 mm | - | - | - |
| 1788430559 | 22.78° C | 88% | 1016.8 hPa | 0 mm | - | - | - |
* Rain latest hour (hover to see other rain measurements)
** Current wind speed in m/s (hover to see current wind gust speed)